createdAt,value
2019-01-10T00:01:16.166Z,89.17
2019-01-10T00:03:45.724Z,89.26
2019-01-10T00:06:14.964Z,89.30
2019-01-10T00:08:44.184Z,89.48
2019-01-10T00:11:13.390Z,89.13
2019-01-10T00:13:42.963Z,89.54
2019-01-10T00:16:12.145Z,89.88
2019-01-10T00:18:41.689Z,89.87
2019-01-10T00:21:10.917Z,89.74
2019-01-10T00:23:40.457Z,89.59
2019-01-10T00:26:10.064Z,89.47
2019-01-10T00:28:39.551Z,89.55
2019-01-10T00:31:08.718Z,89.38
2019-01-10T00:33:38.670Z,89.49
2019-01-10T00:36:08.119Z,89.55
2019-01-10T00:38:37.418Z,89.60
2019-01-10T00:41:06.652Z,89.51
2019-01-10T00:43:36.164Z,89.37
2019-01-10T00:46:05.741Z,89.49
2019-01-10T00:48:34.891Z,89.25
2019-01-10T00:51:04.108Z,89.36
2019-01-10T00:53:33.275Z,89.26
2019-01-10T00:56:03.282Z,89.49
2019-01-10T00:58:32.720Z,89.74
2019-01-10T01:01:01.874Z,89.48
2019-01-10T01:03:31.452Z,89.41
2019-01-10T01:06:01.190Z,89.72
2019-01-10T01:08:30.353Z,89.70
2019-01-10T01:10:59.522Z,89.91
2019-01-10T01:13:28.798Z,90.49
2019-01-10T01:15:57.951Z,90.82
2019-01-10T01:18:27.091Z,91.40
2019-01-10T01:20:56.553Z,91.64
2019-01-10T01:23:25.809Z,91.78
2019-01-10T01:25:55.347Z,91.92
2019-01-10T01:28:24.679Z,92.05
2019-01-10T01:30:53.854Z,92.36
2019-01-10T01:33:23.354Z,92.79
2019-01-10T01:35:52.547Z,92.70
2019-01-10T01:38:21.707Z,92.78
2019-01-10T01:40:51.698Z,92.68
2019-01-10T01:43:21.136Z,92.82
2019-01-10T01:45:50.992Z,92.96
2019-01-10T01:48:20.936Z,92.95
2019-01-10T01:50:50.117Z,93.02
2019-01-10T01:53:19.412Z,92.83
2019-01-10T01:55:48.614Z,92.75
2019-01-10T01:58:18.643Z,92.84
2019-01-10T02:00:48.054Z,92.57
2019-01-10T02:03:17.187Z,92.50
2019-01-10T02:05:46.703Z,92.50
2019-01-10T02:08:15.897Z,92.53
2019-01-10T02:10:45.118Z,92.81
2019-01-10T02:13:16.908Z,92.72
2019-01-10T02:15:45.228Z,92.57
2019-01-10T02:18:14.431Z,92.51
2019-01-10T02:20:43.617Z,92.56
2019-01-10T02:23:12.757Z,92.78
2019-01-10T02:25:41.926Z,92.60
2019-01-10T02:28:11.463Z,92.67
2019-01-10T02:30:42.058Z,92.71
2019-01-10T02:33:11.679Z,93.05
2019-01-10T02:35:40.912Z,93.01
2019-01-10T02:38:10.093Z,93.26
2019-01-10T02:40:39.617Z,93.41
2019-01-10T02:43:09.199Z,93.69
2019-01-10T02:45:38.732Z,93.82
2019-01-10T02:48:07.902Z,94.04
2019-01-10T02:50:37.751Z,94.31
2019-01-10T02:53:07.041Z,94.24
2019-01-10T02:55:36.249Z,94.12
2019-01-10T02:58:05.750Z,94.22
2019-01-10T03:00:35.289Z,94.18
2019-01-10T03:03:04.485Z,94.29
2019-01-10T03:05:33.723Z,94.27
2019-01-10T03:08:02.910Z,94.23
2019-01-10T03:10:32.150Z,94.46
2019-01-10T03:13:02.464Z,94.54
2019-01-10T03:15:31.671Z,94.95
2019-01-10T03:18:01.484Z,94.65
2019-01-10T03:20:30.671Z,94.78
2019-01-10T03:22:59.840Z,95.12
2019-01-10T03:25:29.392Z,95.15
2019-01-10T03:27:58.926Z,95.61
2019-01-10T03:30:28.445Z,95.92
2019-01-10T03:32:57.787Z,95.59
2019-01-10T03:35:27.064Z,95.09
2019-01-10T03:37:56.190Z,94.56
2019-01-10T03:40:25.713Z,94.54
2019-01-10T03:42:55.202Z,94.69
2019-01-10T03:45:24.451Z,94.54
2019-01-10T03:47:53.582Z,94.53
2019-01-10T03:50:22.866Z,94.59
2019-01-10T03:52:52.059Z,94.50
2019-01-10T03:55:21.233Z,94.41
2019-01-10T03:57:50.848Z,94.49
2019-01-10T04:00:24.581Z,94.58
2019-01-10T04:02:53.736Z,94.55
2019-01-10T04:05:23.412Z,94.53
2019-01-10T04:07:52.598Z,94.57
2019-01-10T04:10:22.105Z,94.52
2019-01-10T04:12:51.549Z,94.34
2019-01-10T04:15:20.815Z,94.57
2019-01-10T04:17:50.981Z,94.46
2019-01-10T04:20:20.257Z,94.63
2019-01-10T04:22:49.448Z,94.95
2019-01-10T04:25:18.671Z,94.63
2019-01-10T04:27:47.814Z,94.82
2019-01-10T04:30:21.828Z,95.34
2019-01-10T04:32:50.982Z,95.61
2019-01-10T04:35:20.510Z,95.62
2019-01-10T04:37:50.044Z,95.76
2019-01-10T04:40:21.064Z,96.10
2019-01-10T04:42:50.482Z,96.20
2019-01-10T04:45:19.622Z,95.76
2019-01-10T04:47:49.117Z,95.18
2019-01-10T04:50:18.720Z,95.33
2019-01-10T04:52:48.355Z,95.29
2019-01-10T04:55:17.486Z,95.45
2019-01-10T04:57:47.230Z,95.70
2019-01-10T05:00:19.733Z,96.03
2019-01-10T05:02:48.886Z,96.25
2019-01-10T05:05:18.143Z,96.52
2019-01-10T05:07:47.289Z,96.68
2019-01-10T05:10:16.962Z,96.85
2019-01-10T05:12:46.213Z,97.18
2019-01-10T05:15:15.556Z,97.03
2019-01-10T05:17:45.057Z,96.89
2019-01-10T05:20:19.460Z,96.77
2019-01-10T05:22:48.878Z,96.76
2019-01-10T05:25:18.081Z,96.59
2019-01-10T05:27:47.609Z,96.45
2019-01-10T05:30:26.246Z,96.61
2019-01-10T05:32:55.765Z,96.74
2019-01-10T05:35:25.458Z,96.40
2019-01-10T05:37:54.676Z,96.44
2019-01-10T05:40:24.203Z,96.63
2019-01-10T05:42:54.157Z,96.25
2019-01-10T05:45:23.345Z,96.21
2019-01-10T05:47:52.513Z,97.08
2019-01-10T05:50:22.169Z,97.69
2019-01-10T05:52:51.934Z,97.91
2019-01-10T05:55:25.936Z,98.14
2019-01-10T05:57:55.288Z,98.46
2019-01-10T06:00:27.122Z,98.37
2019-01-10T06:02:56.943Z,98.17
2019-01-10T06:05:27.841Z,97.70
2019-01-10T06:07:57.001Z,97.14
2019-01-10T06:10:28.242Z,97.12
2019-01-10T06:12:58.569Z,97.06
2019-01-10T06:15:27.896Z,96.80
2019-01-10T06:17:57.141Z,96.40
2019-01-10T06:20:26.977Z,96.32
2019-01-10T06:22:56.992Z,96.17
2019-01-10T06:25:26.290Z,96.51
2019-01-10T06:27:55.774Z,96.60
2019-01-10T06:30:25.146Z,96.43
2019-01-10T06:32:54.821Z,96.32
2019-01-10T06:35:24.259Z,96.34
2019-01-10T06:37:53.577Z,96.74
2019-01-10T06:40:23.191Z,96.46
2019-01-10T06:42:54.033Z,96.48
2019-01-10T06:45:23.174Z,96.59
2019-01-10T06:47:52.924Z,97.28
2019-01-10T06:50:22.818Z,97.42
2019-01-10T06:52:52.905Z,97.64
2019-01-10T06:55:22.182Z,97.70
2019-01-10T06:57:51.470Z,97.47
2019-01-10T07:00:25.286Z,97.22
2019-01-10T07:02:55.318Z,97.04
2019-01-10T07:05:25.711Z,97.33
2019-01-10T07:07:56.638Z,97.63
2019-01-10T07:10:30.476Z,97.83
2019-01-10T07:12:59.949Z,97.87
2019-01-10T07:15:29.118Z,97.87
2019-01-10T07:17:58.665Z,97.76
2019-01-10T07:20:28.007Z,97.97
2019-01-10T07:22:57.510Z,97.99
2019-01-10T07:25:27.050Z,97.70
2019-01-10T07:27:58.033Z,97.53
2019-01-10T07:30:35.707Z,97.64
2019-01-10T07:32:59.645Z,97.76
2019-01-10T07:35:28.878Z,97.82
2019-01-10T07:37:58.692Z,97.72
2019-01-10T07:40:28.551Z,97.63
2019-01-10T07:42:58.091Z,97.65
2019-01-10T07:45:28.793Z,97.27
2019-01-10T07:47:59.236Z,97.04
2019-01-10T07:50:38.437Z,96.83
2019-01-10T07:53:09.164Z,96.87
2019-01-10T07:55:40.769Z,96.82
2019-01-10T07:58:10.120Z,96.75
2019-01-10T08:00:40.452Z,96.77
2019-01-10T08:03:09.628Z,96.79
2019-01-10T08:05:40.620Z,97.09
2019-01-10T08:08:10.564Z,97.57
2019-01-10T08:10:39.778Z,97.57
2019-01-10T08:13:09.449Z,97.40
2019-01-10T08:15:38.619Z,97.13
2019-01-10T08:18:08.019Z,97.28
2019-01-10T08:20:37.190Z,96.82
2019-01-10T08:23:06.303Z,96.85
2019-01-10T08:25:35.546Z,97.06
2019-01-10T08:28:04.806Z,96.47
2019-01-10T08:30:34.248Z,96.59
2019-01-10T08:33:03.789Z,96.72
2019-01-10T08:35:33.293Z,96.81
2019-01-10T08:38:03.338Z,96.93
2019-01-10T08:40:32.493Z,96.93
2019-01-10T08:43:02.321Z,97.02
2019-01-10T08:45:31.825Z,97.02
2019-01-10T08:48:01.129Z,97.16
2019-01-10T08:50:30.330Z,97.30
2019-01-10T08:52:59.834Z,97.34
2019-01-10T08:55:29.008Z,97.02
2019-01-10T08:57:58.218Z,97.00
2019-01-10T09:00:27.742Z,96.69
2019-01-10T09:02:57.132Z,96.36
2019-01-10T09:05:26.295Z,95.90
2019-01-10T09:07:55.431Z,95.76
2019-01-10T09:10:29.645Z,95.70
2019-01-10T09:12:59.158Z,95.82
2019-01-10T09:15:34.322Z,95.94
2019-01-10T09:17:59.576Z,95.85
2019-01-10T09:20:28.794Z,95.77
2019-01-10T09:22:57.958Z,96.07
2019-01-10T09:25:27.620Z,96.88
2019-01-10T09:27:58.091Z,97.40
2019-01-10T09:30:27.474Z,97.57
2019-01-10T09:32:57.161Z,97.51
2019-01-10T09:35:26.689Z,97.32
2019-01-10T09:37:55.854Z,96.95
2019-01-10T09:40:25.144Z,96.94
2019-01-10T09:42:54.453Z,97.10
2019-01-10T09:45:25.338Z,96.86
2019-01-10T09:47:54.898Z,96.62
2019-01-10T09:50:24.750Z,95.87
2019-01-10T09:52:54.479Z,95.69
2019-01-10T09:55:43.051Z,95.60
2019-01-10T09:58:12.501Z,95.73
2019-01-10T10:00:41.804Z,95.53
2019-01-10T10:03:10.970Z,95.29
2019-01-10T10:05:40.538Z,94.91
2019-01-10T10:08:10.014Z,94.86
2019-01-10T10:10:39.516Z,94.37
2019-01-10T10:13:08.672Z,94.23
2019-01-10T10:15:37.848Z,94.07
2019-01-10T10:18:07.038Z,93.61
2019-01-10T10:20:37.668Z,92.74
2019-01-10T10:23:07.265Z,92.59
2019-01-10T10:25:36.762Z,92.43
2019-01-10T10:28:06.120Z,92.11
2019-01-10T10:30:36.398Z,92.14
2019-01-10T10:33:06.318Z,92.48
2019-01-10T10:35:35.831Z,92.25
2019-01-10T10:38:05.057Z,91.93
2019-01-10T10:40:34.286Z,91.86
2019-01-10T10:43:05.710Z,91.80
2019-01-10T10:45:35.163Z,92.02
2019-01-10T10:48:04.383Z,91.43
2019-01-10T10:50:35.143Z,91.15
2019-01-10T10:53:06.337Z,90.96
2019-01-10T10:55:35.826Z,90.89
2019-01-10T10:58:05.189Z,91.37
2019-01-10T11:00:36.828Z,91.37
2019-01-10T11:03:05.990Z,91.33
2019-01-10T11:05:35.546Z,91.37
2019-01-10T11:08:04.817Z,91.32
2019-01-10T11:10:34.186Z,91.13
2019-01-10T11:13:03.372Z,91.14
2019-01-10T11:15:32.843Z,90.83
2019-01-10T11:18:02.201Z,91.02
2019-01-10T11:20:31.413Z,90.74
2019-01-10T11:23:10.158Z,90.58
2019-01-10T11:25:32.076Z,91.07
2019-01-10T11:28:01.289Z,90.44
2019-01-10T11:30:31.093Z,90.38
2019-01-10T11:33:00.672Z,90.15
2019-01-10T11:35:30.616Z,90.07
2019-01-10T11:38:00.120Z,89.90
2019-01-10T11:40:29.758Z,89.80
2019-01-10T11:42:59.053Z,89.68
2019-01-10T11:45:29.267Z,89.44
2019-01-10T11:48:00.197Z,89.48
2019-01-10T11:50:29.346Z,88.70
2019-01-10T11:53:00.612Z,88.56
2019-01-10T11:55:29.812Z,88.36
2019-01-10T11:57:59.023Z,88.22
2019-01-10T12:00:31.188Z,88.02
2019-01-10T12:03:02.224Z,88.38
2019-01-10T12:05:31.429Z,88.74
2019-01-10T12:08:00.956Z,88.54
2019-01-10T12:10:30.465Z,88.86
2019-01-10T12:12:59.662Z,89.17
2019-01-10T12:15:29.186Z,89.70
2019-01-10T12:17:58.420Z,89.54
2019-01-10T12:20:27.998Z,89.56
2019-01-10T12:22:57.599Z,89.85
2019-01-10T12:25:27.223Z,89.74
2019-01-10T12:27:56.795Z,89.66
2019-01-10T12:30:26.941Z,89.28
2019-01-10T12:32:56.168Z,88.84
2019-01-10T12:35:26.139Z,88.90
2019-01-10T12:37:55.509Z,88.58
2019-01-10T12:40:26.072Z,88.68
2019-01-10T12:42:55.439Z,88.75
2019-01-10T12:45:24.602Z,88.94
2019-01-10T12:47:54.076Z,88.82
2019-01-10T12:50:28.494Z,88.50
2019-01-10T12:52:57.649Z,88.29
2019-01-10T12:55:26.889Z,88.22
2019-01-10T12:57:56.128Z,87.87
2019-01-10T13:00:25.705Z,87.89
2019-01-10T13:02:55.908Z,88.51
2019-01-10T13:05:25.282Z,88.02
2019-01-10T13:08:03.145Z,88.22
2019-01-10T13:10:25.984Z,88.38
2019-01-10T13:12:55.322Z,88.48
2019-01-10T13:15:28.177Z,88.85
2019-01-10T13:17:57.643Z,89.67
2019-01-10T13:20:26.805Z,89.65
2019-01-10T13:22:56.276Z,90.02
2019-01-10T13:25:25.533Z,89.81
2019-01-10T13:27:57.253Z,89.92
2019-01-10T13:30:28.571Z,90.43
2019-01-10T13:32:58.497Z,90.67
2019-01-10T13:35:28.126Z,90.82
2019-01-10T13:37:57.721Z,90.60
2019-01-10T13:40:28.672Z,90.20
2019-01-10T13:42:57.830Z,90.40
2019-01-10T13:45:29.117Z,90.27
2019-01-10T13:47:58.310Z,90.15
2019-01-10T13:50:32.018Z,90.25
2019-01-10T13:53:01.210Z,89.71
2019-01-10T13:55:30.411Z,89.99
2019-01-10T13:57:59.818Z,89.79
2019-01-10T14:00:35.723Z,90.12
2019-01-10T14:03:04.138Z,89.88
2019-01-10T14:05:33.705Z,89.93
2019-01-10T14:08:02.987Z,90.27
2019-01-10T14:10:32.582Z,90.61
2019-01-10T14:13:01.729Z,90.29
2019-01-10T14:15:35.772Z,90.42
2019-01-10T14:18:05.872Z,90.43
2019-01-10T14:20:36.560Z,90.48
2019-01-10T14:23:05.915Z,91.05
2019-01-10T14:25:35.283Z,91.04
2019-01-10T14:28:04.502Z,90.60
2019-01-10T14:30:39.741Z,91.45
2019-01-10T14:33:11.898Z,91.97
2019-01-10T14:35:41.447Z,92.39
2019-01-10T14:38:11.118Z,92.67
2019-01-10T14:40:40.398Z,92.52
2019-01-10T14:43:09.997Z,92.84
2019-01-10T14:45:40.568Z,92.96
2019-01-10T14:48:11.308Z,93.25
2019-01-10T14:50:41.265Z,93.26
2019-01-10T14:53:10.481Z,93.30
2019-01-10T14:55:39.964Z,93.38
2019-01-10T14:58:09.115Z,93.51
2019-01-10T15:00:38.486Z,93.97
2019-01-10T15:03:07.925Z,94.36
2019-01-10T15:05:37.230Z,94.67
2019-01-10T15:08:06.519Z,94.97
2019-01-10T15:10:36.065Z,94.99
2019-01-10T15:13:05.918Z,95.10
2019-01-10T15:15:35.667Z,95.33
2019-01-10T15:18:06.793Z,95.42
2019-01-10T15:20:36.691Z,95.64
2019-01-10T15:23:05.866Z,95.92
2019-01-10T15:25:35.146Z,96.07
2019-01-10T15:28:04.305Z,96.08
2019-01-10T15:30:33.569Z,96.25
2019-01-10T15:33:03.070Z,96.34
2019-01-10T15:35:32.580Z,96.58
2019-01-10T15:38:02.423Z,96.49
2019-01-10T15:40:33.157Z,96.49
2019-01-10T15:43:03.714Z,96.59
2019-01-10T15:45:33.700Z,96.20
2019-01-10T15:48:03.416Z,96.40
2019-01-10T15:50:33.243Z,96.76
2019-01-10T15:53:03.511Z,96.87
2019-01-10T15:55:33.048Z,96.95
2019-01-10T15:58:02.278Z,97.07
2019-01-10T16:00:31.466Z,96.92
2019-01-10T16:03:01.327Z,96.66
2019-01-10T16:05:30.486Z,96.25
2019-01-10T16:07:59.673Z,95.76
2019-01-10T16:10:29.147Z,95.45
2019-01-10T16:12:58.521Z,95.12
2019-01-10T16:15:27.724Z,94.83
2019-01-10T16:17:56.912Z,94.67
2019-01-10T16:20:26.127Z,94.72
2019-01-10T16:22:55.287Z,94.67
2019-01-10T16:25:24.758Z,94.70
2019-01-10T16:27:54.479Z,94.38
2019-01-10T16:30:31.462Z,94.64
2019-01-10T16:33:01.304Z,94.62
2019-01-10T16:35:30.583Z,94.68
2019-01-10T16:38:00.164Z,94.69
2019-01-10T16:40:29.339Z,94.97
2019-01-10T16:42:58.995Z,95.12
2019-01-10T16:45:33.614Z,94.97
2019-01-10T16:48:03.164Z,94.98
2019-01-10T16:50:34.212Z,94.94
2019-01-10T16:53:03.627Z,94.68
2019-01-10T16:55:34.120Z,94.71
2019-01-10T16:58:05.155Z,94.73
2019-01-10T17:00:35.426Z,94.99
2019-01-10T17:03:05.788Z,95.04
2019-01-10T17:05:35.030Z,95.03
2019-01-10T17:08:04.580Z,95.17
2019-01-10T17:10:34.092Z,95.22
2019-01-10T17:13:03.699Z,95.26
2019-01-10T17:15:32.877Z,95.30
2019-01-10T17:18:02.406Z,95.28
2019-01-10T17:20:31.825Z,95.43
2019-01-10T17:23:01.427Z,95.36
2019-01-10T17:25:30.633Z,95.27
2019-01-10T17:28:00.535Z,95.37
2019-01-10T17:30:31.017Z,95.45
2019-01-10T17:33:00.932Z,95.55
2019-01-10T17:35:32.397Z,95.54
2019-01-10T17:38:02.064Z,95.67
2019-01-10T17:40:31.521Z,95.49
2019-01-10T17:43:00.716Z,95.47
2019-01-10T17:45:32.338Z,95.66
2019-01-10T17:48:01.919Z,95.78
2019-01-10T17:50:31.382Z,96.03
2019-01-10T17:53:00.588Z,96.13
2019-01-10T17:55:30.118Z,96.16
2019-01-10T17:57:59.704Z,96.57
2019-01-10T18:00:30.630Z,96.80
2019-01-10T18:03:00.371Z,96.91
2019-01-10T18:05:29.589Z,97.14
2019-01-10T18:07:59.492Z,97.43
2019-01-10T18:10:28.863Z,97.55
2019-01-10T18:12:58.432Z,97.58
2019-01-10T18:15:28.324Z,97.65
2019-01-10T18:17:57.827Z,97.63
2019-01-10T18:20:32.549Z,97.76
2019-01-10T18:23:01.739Z,97.89
2019-01-10T18:25:30.901Z,98.06
2019-01-10T18:28:00.218Z,97.83
2019-01-10T18:30:29.467Z,98.08
2019-01-10T18:32:58.961Z,98.31
2019-01-10T18:35:28.883Z,98.33
2019-01-10T18:37:59.711Z,98.31
2019-01-10T18:40:29.601Z,98.34
2019-01-10T18:42:59.545Z,98.32
2019-01-10T18:45:31.235Z,98.45
2019-01-10T18:48:00.780Z,98.63
2019-01-10T18:50:30.364Z,98.84
2019-01-10T18:53:00.289Z,98.73
2019-01-10T18:55:29.497Z,99.01
2019-01-10T18:57:58.764Z,98.98
2019-01-10T19:00:29.633Z,98.92
2019-01-10T19:03:00.013Z,98.92
2019-01-10T19:05:30.495Z,99.05
2019-01-10T19:08:00.094Z,99.09
2019-01-10T19:10:29.299Z,99.19
2019-01-10T19:12:58.541Z,99.31
2019-01-10T19:15:28.047Z,99.37
2019-01-10T19:18:03.154Z,99.54
2019-01-10T19:20:29.333Z,99.45
2019-01-10T19:23:02.586Z,99.44
2019-01-10T19:25:32.076Z,99.56
2019-01-10T19:28:01.485Z,99.75
2019-01-10T19:30:36.259Z,100.00
2019-01-10T19:33:06.409Z,100.00
2019-01-10T19:35:35.880Z,100.00
2019-01-10T19:38:05.736Z,100.00
2019-01-10T19:40:34.909Z,100.00
2019-01-10T19:43:04.827Z,100.00
2019-01-10T19:45:34.010Z,100.00
2019-01-10T19:48:09.700Z,100.00
2019-01-10T19:50:36.017Z,100.00
2019-01-10T19:53:05.345Z,100.00
2019-01-10T19:55:34.556Z,100.00
2019-01-10T19:58:04.188Z,100.00
2019-01-10T20:00:36.702Z,100.00
2019-01-10T20:03:06.584Z,100.00
2019-01-10T20:05:35.937Z,100.00
2019-01-10T20:08:05.804Z,100.00
2019-01-10T20:10:35.427Z,100.00
2019-01-10T20:13:04.702Z,100.00
2019-01-10T20:15:33.909Z,100.00
2019-01-10T20:18:03.125Z,100.00
2019-01-10T20:20:35.652Z,100.00
2019-01-10T20:23:07.018Z,100.00
2019-01-10T20:25:37.847Z,100.00
2019-01-10T20:28:07.195Z,100.00
2019-01-10T20:30:37.062Z,100.00
2019-01-10T20:33:06.585Z,100.00
2019-01-10T20:35:36.034Z,100.00
2019-01-10T20:38:05.968Z,100.00
2019-01-10T20:40:36.556Z,100.00
2019-01-10T20:43:06.283Z,100.00
2019-01-10T20:45:36.193Z,100.00
2019-01-10T20:48:06.232Z,100.00
2019-01-10T20:50:35.497Z,100.00
2019-01-10T20:53:05.802Z,100.00
2019-01-10T20:55:36.227Z,100.00
2019-01-10T20:58:06.019Z,100.00
2019-01-10T21:00:35.970Z,100.00
2019-01-10T21:03:05.692Z,100.00
2019-01-10T21:05:34.899Z,100.00
2019-01-10T21:08:04.054Z,100.00
2019-01-10T21:10:33.694Z,100.00
2019-01-10T21:13:03.050Z,100.00
2019-01-10T21:15:32.577Z,100.00
2019-01-10T21:18:01.770Z,100.00
2019-01-10T21:20:30.942Z,100.00
2019-01-10T21:23:00.640Z,100.00
2019-01-10T21:25:29.856Z,100.00
2019-01-10T21:28:00.703Z,100.00
2019-01-10T21:30:29.911Z,100.00
2019-01-10T21:32:59.124Z,100.00
2019-01-10T21:35:28.767Z,100.00
2019-01-10T21:37:57.980Z,100.00
2019-01-10T21:40:28.665Z,100.00
2019-01-10T21:42:58.546Z,100.00
2019-01-10T21:45:28.327Z,100.00
2019-01-10T21:47:59.297Z,100.00
2019-01-10T21:50:28.501Z,100.00
2019-01-10T21:52:57.744Z,100.00
2019-01-10T21:55:26.898Z,100.00
2019-01-10T21:57:56.157Z,100.00
2019-01-10T22:00:27.977Z,100.00
2019-01-10T22:02:57.757Z,100.00
2019-01-10T22:05:26.919Z,100.00
2019-01-10T22:07:56.094Z,100.00
2019-01-10T22:10:25.598Z,100.00
2019-01-10T22:12:55.280Z,100.00
2019-01-10T22:15:25.063Z,100.00
2019-01-10T22:17:54.646Z,100.00
2019-01-10T22:20:24.764Z,100.00
2019-01-10T22:22:53.994Z,100.00
2019-01-10T22:25:23.262Z,100.00
2019-01-10T22:27:52.871Z,100.00
2019-01-10T22:30:23.244Z,100.00
2019-01-10T22:32:52.402Z,100.00
2019-01-10T22:35:23.189Z,100.00
2019-01-10T22:37:54.201Z,100.00
2019-01-10T22:40:24.766Z,100.00
2019-01-10T22:42:54.358Z,100.00
2019-01-10T22:45:23.904Z,100.00
2019-01-10T22:47:53.989Z,100.00
2019-01-10T22:50:24.929Z,100.00
2019-01-10T22:52:54.612Z,100.00
2019-01-10T22:55:25.733Z,100.00
2019-01-10T22:57:55.269Z,100.00
2019-01-10T23:01:21.726Z,100.00
2019-01-10T23:03:51.023Z,100.00
2019-01-10T23:06:20.205Z,100.00
2019-01-10T23:08:50.873Z,100.00
2019-01-10T23:11:23.949Z,100.00
2019-01-10T23:14:00.563Z,100.00
2019-01-10T23:16:30.762Z,100.00
2019-01-10T23:18:59.962Z,100.00
2019-01-10T23:21:31.193Z,100.00
2019-01-10T23:24:26.717Z,100.00
2019-01-10T23:26:57.018Z,100.00
2019-01-10T23:29:33.076Z,100.00
2019-01-10T23:32:10.895Z,100.00
2019-01-10T23:34:47.019Z,100.00
2019-01-10T23:37:24.734Z,100.00
2019-01-10T23:39:55.260Z,100.00
2019-01-10T23:42:24.751Z,100.00
2019-01-10T23:44:53.960Z,100.00
2019-01-10T23:47:23.183Z,100.00
2019-01-10T23:49:52.322Z,100.00
2019-01-10T23:52:21.612Z,100.00
2019-01-10T23:54:51.486Z,100.00
2019-01-10T23:57:21.015Z,100.00
2019-01-10T23:59:50.212Z,100.00
